CheckWX is a tool to help pilots better visualize weather data.  It is not intended as a substitute for an official pre-flight weather briefing.

10:04:17 UTC

KGGG METAR
East Texas Regional Airport
Longview, Texas, USA
Current

11 mins ago

KGGG 200953Z AUTO 29005KT 10SM SCT004 OVC011 04/04 A2991 RMK AO2 RAB0857E07 SLP130 P0000 T00390039
Observed
Feb-20 @ 09:53 UTC
Wind
  • 290° at 5 KTS
Visibility
16,093 meters
Flight Rules
MVFR
Cloud Levels
  • Scattered at 400' AGL
  • Overcast at 1,100' AGL
Temperature
C / 39°F
Dewpoint
C / 39°F
Humidity
100%
Altimeter
29.91" Hg
Pressure
1013 hPa
Current Rain
0.01"
Previous

31 mins ago

KGGG 200933Z AUTO 30005KT 10SM SCT007 OVC012 04/04 A2989 RMK AO2 RAB0857E07 P0000 T00390039
Observed
Feb-20 @ 09:33 UTC
Wind
  • 300° at 5 KTS
Visibility
16,093 meters
Flight Rules
MVFR
Cloud Levels
  • Scattered at 700' AGL
  • Overcast at 1,200' AGL
Temperature
C / 39°F
Dewpoint
C / 39°F
Humidity
100%
Altimeter
29.89" Hg
Pressure
1012.22 hPa
Current Rain
0.01"
Previous

1 hour ago

KGGG 200901Z AUTO 27005KT 10SM -RA OVC005 04/04 A2991 RMK AO2 RAB0857 CIG 003V008 PRESRR P0000 T00390039
Observed
Feb-20 @ 09:01 UTC
Wind
  • 270° at 5 KTS
Visibility
16,093 meters
Flight Rules
IFR
Conditions
Light Rain
Cloud Levels
  • Overcast at 500' AGL
Temperature
C / 39°F
Dewpoint
C / 39°F
Humidity
100%
Altimeter
29.91" Hg
Pressure
1012.92 hPa
Current Rain
0.01"